sensor_id;sensor_type;location;lat;lon;timestamp;P1;durP1;ratioP1;P2;durP2;ratioP2
76023;SDS011;64719;52.124;6.226;2024-01-25T00:01:33;16.95;;;3.38;;
76023;SDS011;64719;52.124;6.226;2024-01-25T00:04:00;21.65;;;2.83;;
76023;SDS011;64719;52.124;6.226;2024-01-25T00:06:26;17.08;;;3.22;;
76023;SDS011;64719;52.124;6.226;2024-01-25T00:08:53;19.17;;;3.67;;
76023;SDS011;64719;52.124;6.226;2024-01-25T00:11:19;27.25;;;3.90;;
76023;SDS011;64719;52.124;6.226;2024-01-25T00:13:45;17.95;;;3.05;;
76023;SDS011;64719;52.124;6.226;2024-01-25T00:16:12;19.30;;;3.47;;
76023;SDS011;64719;52.124;6.226;2024-01-25T00:18:38;16.08;;;3.13;;
76023;SDS011;64719;52.124;6.226;2024-01-25T00:21:06;14.18;;;2.75;;
76023;SDS011;64719;52.124;6.226;2024-01-25T00:23:32;16.90;;;2.45;;
76023;SDS011;64719;52.124;6.226;2024-01-25T00:25:59;19.05;;;2.63;;
76023;SDS011;64719;52.124;6.226;2024-01-25T00:28:25;17.58;;;3.35;;
76023;SDS011;64719;52.124;6.226;2024-01-25T00:30:51;17.77;;;3.28;;
76023;SDS011;64719;52.124;6.226;2024-01-25T00:33:17;26.90;;;3.40;;
76023;SDS011;64719;52.124;6.226;2024-01-25T00:35:44;17.50;;;2.65;;
76023;SDS011;64719;52.124;6.226;2024-01-25T00:38:12;15.13;;;4.20;;
76023;SDS011;64719;52.124;6.226;2024-01-25T00:40:39;18.02;;;4.57;;
76023;SDS011;64719;52.124;6.226;2024-01-25T00:43:08;17.52;;;3.20;;
76023;SDS011;64719;52.124;6.226;2024-01-25T00:45:35;19.60;;;2.75;;
76023;SDS011;64719;52.124;6.226;2024-01-25T00:48:01;22.98;;;3.30;;
76023;SDS011;64719;52.124;6.226;2024-01-25T00:50:28;15.98;;;3.20;;
76023;SDS011;64719;52.124;6.226;2024-01-25T00:52:54;21.23;;;3.45;;
76023;SDS011;64719;52.124;6.226;2024-01-25T00:55:22;17.75;;;2.80;;
76023;SDS011;64719;52.124;6.226;2024-01-25T00:57:49;20.40;;;3.40;;
76023;SDS011;64719;52.124;6.226;2024-01-25T01:00:17;15.13;;;2.63;;
76023;SDS011;64719;52.124;6.226;2024-01-25T01:02:43;16.90;;;3.15;;
76023;SDS011;64719;52.124;6.226;2024-01-25T01:05:11;13.68;;;2.78;;
76023;SDS011;64719;52.124;6.226;2024-01-25T01:07:38;14.32;;;2.65;;
76023;SDS011;64719;52.124;6.226;2024-01-25T01:10:06;19.88;;;3.55;;
76023;SDS011;64719;52.124;6.226;2024-01-25T01:12:33;20.58;;;3.65;;
76023;SDS011;64719;52.124;6.226;2024-01-25T01:15:00;23.05;;;3.22;;
76023;SDS011;64719;52.124;6.226;2024-01-25T01:17:26;26.90;;;3.35;;
76023;SDS011;64719;52.124;6.226;2024-01-25T01:19:52;13.38;;;2.72;;
76023;SDS011;64719;52.124;6.226;2024-01-25T01:22:19;14.50;;;3.33;;
76023;SDS011;64719;52.124;6.226;2024-01-25T01:24:45;13.13;;;2.63;;
76023;SDS011;64719;52.124;6.226;2024-01-25T01:27:11;17.90;;;3.25;;
76023;SDS011;64719;52.124;6.226;2024-01-25T01:29:39;20.48;;;3.67;;
76023;SDS011;64719;52.124;6.226;2024-01-25T01:32:06;19.33;;;3.20;;
76023;SDS011;64719;52.124;6.226;2024-01-25T01:34:33;21.77;;;2.85;;
76023;SDS011;64719;52.124;6.226;2024-01-25T01:36:59;16.90;;;3.67;;
76023;SDS011;64719;52.124;6.226;2024-01-25T01:39:26;27.70;;;3.90;;
76023;SDS011;64719;52.124;6.226;2024-01-25T01:41:52;16.85;;;3.65;;
76023;SDS011;64719;52.124;6.226;2024-01-25T01:44:18;12.15;;;2.67;;
76023;SDS011;64719;52.124;6.226;2024-01-25T01:46:47;17.20;;;3.08;;
76023;SDS011;64719;52.124;6.226;2024-01-25T01:49:14;16.75;;;3.28;;
76023;SDS011;64719;52.124;6.226;2024-01-25T01:51:40;22.60;;;3.65;;
76023;SDS011;64719;52.124;6.226;2024-01-25T01:54:08;16.90;;;3.17;;
76023;SDS011;64719;52.124;6.226;2024-01-25T01:56:34;20.70;;;3.40;;
76023;SDS011;64719;52.124;6.226;2024-01-25T01:59:02;19.83;;;3.97;;
76023;SDS011;64719;52.124;6.226;2024-01-25T02:01:28;19.35;;;3.47;;
76023;SDS011;64719;52.124;6.226;2024-01-25T02:03:55;14.32;;;2.90;;
76023;SDS011;64719;52.124;6.226;2024-01-25T02:06:21;18.00;;;3.53;;
76023;SDS011;64719;52.124;6.226;2024-01-25T02:08:48;15.07;;;3.05;;
76023;SDS011;64719;52.124;6.226;2024-01-25T02:11:15;25.88;;;3.40;;
76023;SDS011;64719;52.124;6.226;2024-01-25T02:13:42;21.63;;;2.88;;
76023;SDS011;64719;52.124;6.226;2024-01-25T02:16:08;22.42;;;3.63;;
76023;SDS011;64719;52.124;6.226;2024-01-25T02:18:35;22.45;;;3.78;;
76023;SDS011;64719;52.124;6.226;2024-01-25T02:21:02;14.95;;;3.85;;
76023;SDS011;64719;52.124;6.226;2024-01-25T02:23:30;19.70;;;2.85;;
76023;SDS011;64719;52.124;6.226;2024-01-25T02:25:56;23.35;;;3.22;;
76023;SDS011;64719;52.124;6.226;2024-01-25T02:28:23;17.25;;;3.28;;
76023;SDS011;64719;52.124;6.226;2024-01-25T02:30:49;20.35;;;3.65;;
76023;SDS011;64719;52.124;6.226;2024-01-25T02:33:15;16.77;;;3.00;;
76023;SDS011;64719;52.124;6.226;2024-01-25T02:35:42;24.10;;;4.13;;
76023;SDS011;64719;52.124;6.226;2024-01-25T02:38:08;22.42;;;4.07;;
76023;SDS011;64719;52.124;6.226;2024-01-25T02:40:36;22.65;;;3.25;;
76023;SDS011;64719;52.124;6.226;2024-01-25T02:43:02;19.40;;;3.33;;
76023;SDS011;64719;52.124;6.226;2024-01-25T02:45:28;15.98;;;3.15;;
76023;SDS011;64719;52.124;6.226;2024-01-25T02:47:55;12.15;;;3.55;;
76023;SDS011;64719;52.124;6.226;2024-01-25T02:50:21;21.77;;;3.55;;
76023;SDS011;64719;52.124;6.226;2024-01-25T02:52:47;29.25;;;3.85;;
76023;SDS011;64719;52.124;6.226;2024-01-25T02:55:14;17.42;;;3.20;;
76023;SDS011;64719;52.124;6.226;2024-01-25T02:57:41;16.75;;;2.88;;
76023;SDS011;64719;52.124;6.226;2024-01-25T03:00:08;19.55;;;3.67;;
76023;SDS011;64719;52.124;6.226;2024-01-25T03:02:34;17.40;;;3.60;;
76023;SDS011;64719;52.124;6.226;2024-01-25T03:05:01;18.55;;;3.55;;
76023;SDS011;64719;52.124;6.226;2024-01-25T03:07:27;15.43;;;3.45;;
76023;SDS011;64719;52.124;6.226;2024-01-25T03:09:53;20.75;;;3.75;;
76023;SDS011;64719;52.124;6.226;2024-01-25T03:12:20;23.33;;;3.42;;
76023;SDS011;64719;52.124;6.226;2024-01-25T03:14:48;24.80;;;3.97;;
76023;SDS011;64719;52.124;6.226;2024-01-25T03:17:14;17.00;;;3.05;;
76023;SDS011;64719;52.124;6.226;2024-01-25T03:19:40;15.48;;;2.97;;
76023;SDS011;64719;52.124;6.226;2024-01-25T03:22:06;28.83;;;4.25;;
76023;SDS011;64719;52.124;6.226;2024-01-25T03:24:33;17.77;;;3.50;;
76023;SDS011;64719;52.124;6.226;2024-01-25T03:27:03;17.13;;;2.97;;
76023;SDS011;64719;52.124;6.226;2024-01-25T03:29:29;15.73;;;2.97;;
76023;SDS011;64719;52.124;6.226;2024-01-25T03:31:57;21.00;;;3.22;;
76023;SDS011;64719;52.124;6.226;2024-01-25T03:34:24;31.15;;;4.22;;
76023;SDS011;64719;52.124;6.226;2024-01-25T03:36:50;23.50;;;3.63;;
76023;SDS011;64719;52.124;6.226;2024-01-25T03:39:18;18.25;;;3.35;;
76023;SDS011;64719;52.124;6.226;2024-01-25T03:41:45;20.83;;;4.00;;
76023;SDS011;64719;52.124;6.226;2024-01-25T03:44:11;24.58;;;3.97;;
76023;SDS011;64719;52.124;6.226;2024-01-25T03:46:37;22.40;;;3.50;;
76023;SDS011;64719;52.124;6.226;2024-01-25T03:49:04;24.70;;;3.63;;
76023;SDS011;64719;52.124;6.226;2024-01-25T03:51:30;27.65;;;4.57;;
76023;SDS011;64719;52.124;6.226;2024-01-25T03:53:56;24.23;;;4.10;;
76023;SDS011;64719;52.124;6.226;2024-01-25T03:56:23;15.07;;;3.38;;
76023;SDS011;64719;52.124;6.226;2024-01-25T03:58:50;16.88;;;3.40;;
76023;SDS011;64719;52.124;6.226;2024-01-25T04:01:17;27.65;;;3.53;;
76023;SDS011;64719;52.124;6.226;2024-01-25T04:03:43;19.30;;;3.65;;
76023;SDS011;64719;52.124;6.226;2024-01-25T04:06:11;17.67;;;3.67;;
76023;SDS011;64719;52.124;6.226;2024-01-25T04:08:37;22.27;;;3.05;;
76023;SDS011;64719;52.124;6.226;2024-01-25T04:11:03;23.75;;;3.28;;
76023;SDS011;64719;52.124;6.226;2024-01-25T04:13:30;13.88;;;3.63;;
76023;SDS011;64719;52.124;6.226;2024-01-25T04:15:56;29.05;;;3.92;;
76023;SDS011;64719;52.124;6.226;2024-01-25T04:18:22;19.58;;;3.30;;
76023;SDS011;64719;52.124;6.226;2024-01-25T04:20:49;22.13;;;3.47;;
76023;SDS011;64719;52.124;6.226;2024-01-25T04:23:17;21.00;;;3.63;;
76023;SDS011;64719;52.124;6.226;2024-01-25T04:25:43;22.15;;;3.33;;
76023;SDS011;64719;52.124;6.226;2024-01-25T04:28:09;23.48;;;3.78;;
76023;SDS011;64719;52.124;6.226;2024-01-25T04:30:36;22.85;;;3.85;;
76023;SDS011;64719;52.124;6.226;2024-01-25T04:33:02;31.58;;;4.30;;
76023;SDS011;64719;52.124;6.226;2024-01-25T04:35:29;26.52;;;3.95;;
76023;SDS011;64719;52.124;6.226;2024-01-25T04:37:56;27.70;;;4.22;;
76023;SDS011;64719;52.124;6.226;2024-01-25T04:40:24;27.98;;;4.43;;
76023;SDS011;64719;52.124;6.226;2024-01-25T04:42:50;23.42;;;3.45;;
76023;SDS011;64719;52.124;6.226;2024-01-25T04:45:17;28.30;;;2.90;;
76023;SDS011;64719;52.124;6.226;2024-01-25T04:47:43;28.23;;;3.95;;
76023;SDS011;64719;52.124;6.226;2024-01-25T04:50:09;25.23;;;4.32;;
76023;SDS011;64719;52.124;6.226;2024-01-25T04:52:36;19.77;;;3.20;;
76023;SDS011;64719;52.124;6.226;2024-01-25T04:55:02;31.48;;;4.65;;
76023;SDS011;64719;52.124;6.226;2024-01-25T04:57:30;24.05;;;4.00;;
76023;SDS011;64719;52.124;6.226;2024-01-25T04:59:56;18.70;;;3.58;;
76023;SDS011;64719;52.124;6.226;2024-01-25T05:02:22;24.10;;;4.07;;
76023;SDS011;64719;52.124;6.226;2024-01-25T05:04:49;16.45;;;3.08;;
76023;SDS011;64719;52.124;6.226;2024-01-25T05:07:15;22.63;;;3.60;;
76023;SDS011;64719;52.124;6.226;2024-01-25T05:09:41;27.98;;;4.43;;
76023;SDS011;64719;52.124;6.226;2024-01-25T05:12:08;27.17;;;4.95;;
76023;SDS011;64719;52.124;6.226;2024-01-25T05:14:36;38.03;;;4.78;;
76023;SDS011;64719;52.124;6.226;2024-01-25T05:17:02;21.70;;;3.83;;
76023;SDS011;64719;52.124;6.226;2024-01-25T05:19:28;20.33;;;4.65;;
76023;SDS011;64719;52.124;6.226;2024-01-25T05:21:55;33.17;;;5.15;;
76023;SDS011;64719;52.124;6.226;2024-01-25T05:24:21;29.85;;;6.05;;
76023;SDS011;64719;52.124;6.226;2024-01-25T05:26:48;20.48;;;3.45;;
76023;SDS011;64719;52.124;6.226;2024-01-25T05:29:14;37.63;;;4.18;;
76023;SDS011;64719;52.124;6.226;2024-01-25T05:31:42;21.98;;;4.03;;
76023;SDS011;64719;52.124;6.226;2024-01-25T05:34:09;31.95;;;4.30;;
76023;SDS011;64719;52.124;6.226;2024-01-25T05:36:35;27.80;;;4.53;;
76023;SDS011;64719;52.124;6.226;2024-01-25T05:39:01;20.55;;;3.67;;
76023;SDS011;64719;52.124;6.226;2024-01-25T05:41:31;28.00;;;4.78;;
76023;SDS011;64719;52.124;6.226;2024-01-25T05:43:57;31.30;;;5.22;;
76023;SDS011;64719;52.124;6.226;2024-01-25T05:46:24;26.17;;;4.88;;
76023;SDS011;64719;52.124;6.226;2024-01-25T05:48:52;20.02;;;3.53;;
76023;SDS011;64719;52.124;6.226;2024-01-25T05:51:18;25.58;;;4.13;;
76023;SDS011;64719;52.124;6.226;2024-01-25T05:53:44;19.83;;;3.70;;
76023;SDS011;64719;52.124;6.226;2024-01-25T05:56:11;27.27;;;4.40;;
76023;SDS011;64719;52.124;6.226;2024-01-25T05:58:37;20.45;;;3.42;;
76023;SDS011;64719;52.124;6.226;2024-01-25T06:01:03;24.02;;;3.08;;
76023;SDS011;64719;52.124;6.226;2024-01-25T06:03:30;29.27;;;4.57;;
76023;SDS011;64719;52.124;6.226;2024-01-25T06:05:57;27.08;;;4.88;;
76023;SDS011;64719;52.124;6.226;2024-01-25T06:08:23;19.67;;;4.68;;
76023;SDS011;64719;52.124;6.226;2024-01-25T06:10:50;24.90;;;5.07;;
76023;SDS011;64719;52.124;6.226;2024-01-25T06:13:16;25.50;;;4.95;;
76023;SDS011;64719;52.124;6.226;2024-01-25T06:15:42;36.72;;;4.50;;
76023;SDS011;64719;52.124;6.226;2024-01-25T06:18:09;18.42;;;4.07;;
76023;SDS011;64719;52.124;6.226;2024-01-25T06:20:35;26.48;;;4.43;;
76023;SDS011;64719;52.124;6.226;2024-01-25T06:23:03;26.30;;;4.78;;
76023;SDS011;64719;52.124;6.226;2024-01-25T06:25:29;24.98;;;4.00;;
76023;SDS011;64719;52.124;6.226;2024-01-25T06:27:56;27.40;;;5.85;;
76023;SDS011;64719;52.124;6.226;2024-01-25T06:30:22;32.67;;;4.88;;
76023;SDS011;64719;52.124;6.226;2024-01-25T06:32:48;22.48;;;4.10;;
76023;SDS011;64719;52.124;6.226;2024-01-25T06:35:15;22.67;;;3.80;;
76023;SDS011;64719;52.124;6.226;2024-01-25T06:37:41;17.15;;;3.97;;
76023;SDS011;64719;52.124;6.226;2024-01-25T06:40:09;21.38;;;4.00;;
76023;SDS011;64719;52.124;6.226;2024-01-25T06:42:36;24.83;;;3.97;;
76023;SDS011;64719;52.124;6.226;2024-01-25T06:45:02;19.10;;;3.72;;
76023;SDS011;64719;52.124;6.226;2024-01-25T06:47:29;29.83;;;4.60;;
76023;SDS011;64719;52.124;6.226;2024-01-25T06:49:55;18.85;;;3.78;;
76023;SDS011;64719;52.124;6.226;2024-01-25T06:52:21;16.00;;;4.05;;
76023;SDS011;64719;52.124;6.226;2024-01-25T06:54:47;13.77;;;3.17;;
76023;SDS011;64719;52.124;6.226;2024-01-25T06:57:15;22.98;;;4.18;;
76023;SDS011;64719;52.124;6.226;2024-01-25T06:59:41;24.38;;;3.78;;
76023;SDS011;64719;52.124;6.226;2024-01-25T07:02:08;15.32;;;4.40;;
76023;SDS011;64719;52.124;6.226;2024-01-25T07:04:34;18.38;;;4.00;;
76023;SDS011;64719;52.124;6.226;2024-01-25T07:07:03;23.02;;;4.30;;
76023;SDS011;64719;52.124;6.226;2024-01-25T07:09:29;25.83;;;4.85;;
76023;SDS011;64719;52.124;6.226;2024-01-25T07:11:55;29.38;;;5.97;;
76023;SDS011;64719;52.124;6.226;2024-01-25T07:14:23;26.73;;;4.47;;
76023;SDS011;64719;52.124;6.226;2024-01-25T07:16:49;30.50;;;4.72;;
76023;SDS011;64719;52.124;6.226;2024-01-25T07:19:16;33.00;;;5.47;;
76023;SDS011;64719;52.124;6.226;2024-01-25T07:21:42;30.40;;;5.88;;
76023;SDS011;64719;52.124;6.226;2024-01-25T07:24:10;28.65;;;5.15;;
76023;SDS011;64719;52.124;6.226;2024-01-25T07:26:37;28.60;;;5.47;;
76023;SDS011;64719;52.124;6.226;2024-01-25T07:29:03;23.13;;;4.80;;
76023;SDS011;64719;52.124;6.226;2024-01-25T07:31:31;25.90;;;4.43;;
76023;SDS011;64719;52.124;6.226;2024-01-25T07:33:57;21.15;;;5.22;;
76023;SDS011;64719;52.124;6.226;2024-01-25T07:36:24;18.38;;;4.25;;
76023;SDS011;64719;52.124;6.226;2024-01-25T07:38:50;18.67;;;3.63;;
76023;SDS011;64719;52.124;6.226;2024-01-25T07:41:16;30.13;;;4.85;;
76023;SDS011;64719;52.124;6.226;2024-01-25T07:43:43;19.15;;;3.95;;
76023;SDS011;64719;52.124;6.226;2024-01-25T07:46:09;21.08;;;4.80;;
76023;SDS011;64719;52.124;6.226;2024-01-25T07:48:37;17.55;;;3.88;;
76023;SDS011;64719;52.124;6.226;2024-01-25T07:51:10;11.98;;;3.13;;
76023;SDS011;64719;52.124;6.226;2024-01-25T07:53:36;18.30;;;3.53;;
76023;SDS011;64719;52.124;6.226;2024-01-25T07:56:03;19.65;;;3.85;;
76023;SDS011;64719;52.124;6.226;2024-01-25T07:58:30;22.70;;;4.85;;
76023;SDS011;64719;52.124;6.226;2024-01-25T08:00:56;18.30;;;3.75;;
76023;SDS011;64719;52.124;6.226;2024-01-25T08:03:23;16.02;;;3.88;;
76023;SDS011;64719;52.124;6.226;2024-01-25T08:05:51;19.15;;;4.35;;
76023;SDS011;64719;52.124;6.226;2024-01-25T08:08:17;13.77;;;3.72;;
76023;SDS011;64719;52.124;6.226;2024-01-25T08:10:43;14.98;;;4.40;;
76023;SDS011;64719;52.124;6.226;2024-01-25T08:13:10;22.10;;;3.85;;
76023;SDS011;64719;52.124;6.226;2024-01-25T08:15:37;23.35;;;4.93;;
76023;SDS011;64719;52.124;6.226;2024-01-25T08:18:03;18.65;;;4.68;;
76023;SDS011;64719;52.124;6.226;2024-01-25T08:20:30;22.80;;;4.40;;
76023;SDS011;64719;52.124;6.226;2024-01-25T08:22:58;24.52;;;5.57;;
76023;SDS011;64719;52.124;6.226;2024-01-25T08:25:25;18.65;;;4.60;;
76023;SDS011;64719;52.124;6.226;2024-01-25T08:27:51;16.40;;;4.50;;
76023;SDS011;64719;52.124;6.226;2024-01-25T08:30:18;21.25;;;4.10;;
76023;SDS011;64719;52.124;6.226;2024-01-25T08:32:44;15.70;;;4.10;;
76023;SDS011;64719;52.124;6.226;2024-01-25T08:35:10;18.05;;;4.47;;
76023;SDS011;64719;52.124;6.226;2024-01-25T08:37:37;13.98;;;4.07;;
76023;SDS011;64719;52.124;6.226;2024-01-25T08:40:07;14.63;;;4.28;;
76023;SDS011;64719;52.124;6.226;2024-01-25T08:42:34;14.15;;;3.83;;
76023;SDS011;64719;52.124;6.226;2024-01-25T08:45:01;19.30;;;3.85;;
76023;SDS011;64719;52.124;6.226;2024-01-25T08:47:30;17.45;;;4.10;;
76023;SDS011;64719;52.124;6.226;2024-01-25T08:49:56;14.20;;;3.85;;
76023;SDS011;64719;52.124;6.226;2024-01-25T08:52:23;15.32;;;4.57;;
76023;SDS011;64719;52.124;6.226;2024-01-25T08:54:49;16.63;;;4.28;;
76023;SDS011;64719;52.124;6.226;2024-01-25T08:57:17;20.92;;;3.72;;
76023;SDS011;64719;52.124;6.226;2024-01-25T08:59:43;16.98;;;4.50;;
76023;SDS011;64719;52.124;6.226;2024-01-25T09:02:09;23.75;;;4.95;;
76023;SDS011;64719;52.124;6.226;2024-01-25T09:04:36;17.15;;;4.40;;
76023;SDS011;64719;52.124;6.226;2024-01-25T09:07:02;17.88;;;5.38;;
76023;SDS011;64719;52.124;6.226;2024-01-25T09:09:28;20.55;;;5.97;;
76023;SDS011;64719;52.124;6.226;2024-01-25T09:11:55;22.33;;;5.53;;
76023;SDS011;64719;52.124;6.226;2024-01-25T09:14:22;14.70;;;4.35;;
76023;SDS011;64719;52.124;6.226;2024-01-25T09:16:49;22.52;;;5.05;;
76023;SDS011;64719;52.124;6.226;2024-01-25T09:19:15;21.98;;;5.05;;
76023;SDS011;64719;52.124;6.226;2024-01-25T09:21:42;15.75;;;4.75;;
76023;SDS011;64719;52.124;6.226;2024-01-25T09:24:08;22.52;;;4.72;;
76023;SDS011;64719;52.124;6.226;2024-01-25T09:26:35;20.05;;;4.38;;
76023;SDS011;64719;52.124;6.226;2024-01-25T09:29:01;20.02;;;4.70;;
76023;SDS011;64719;52.124;6.226;2024-01-25T09:31:29;24.42;;;5.47;;
76023;SDS011;64719;52.124;6.226;2024-01-25T09:33:55;25.73;;;5.43;;
76023;SDS011;64719;52.124;6.226;2024-01-25T09:36:22;15.52;;;4.40;;
76023;SDS011;64719;52.124;6.226;2024-01-25T09:38:48;15.88;;;4.75;;
76023;SDS011;64719;52.124;6.226;2024-01-25T09:41:14;25.30;;;5.07;;
76023;SDS011;64719;52.124;6.226;2024-01-25T09:43:41;22.80;;;5.25;;
76023;SDS011;64719;52.124;6.226;2024-01-25T09:46:08;16.98;;;4.32;;
76023;SDS011;64719;52.124;6.226;2024-01-25T09:48:38;20.92;;;5.10;;
76023;SDS011;64719;52.124;6.226;2024-01-25T09:51:05;11.63;;;4.28;;
76023;SDS011;64719;52.124;6.226;2024-01-25T09:53:32;21.42;;;5.57;;
76023;SDS011;64719;52.124;6.226;2024-01-25T09:56:00;21.52;;;5.13;;
76023;SDS011;64719;52.124;6.226;2024-01-25T09:58:34;17.17;;;5.18;;
76023;SDS011;64719;52.124;6.226;2024-01-25T10:01:02;22.55;;;5.35;;
76023;SDS011;64719;52.124;6.226;2024-01-25T10:03:29;22.90;;;5.03;;
76023;SDS011;64719;52.124;6.226;2024-01-25T10:05:57;25.83;;;5.60;;
76023;SDS011;64719;52.124;6.226;2024-01-25T10:08:23;18.92;;;5.30;;
76023;SDS011;64719;52.124;6.226;2024-01-25T10:10:49;21.55;;;5.47;;
76023;SDS011;64719;52.124;6.226;2024-01-25T10:13:18;19.40;;;4.97;;
76023;SDS011;64719;52.124;6.226;2024-01-25T10:15:44;21.05;;;4.78;;
76023;SDS011;64719;52.124;6.226;2024-01-25T10:18:12;23.85;;;5.80;;
76023;SDS011;64719;52.124;6.226;2024-01-25T10:20:39;18.98;;;5.40;;
76023;SDS011;64719;52.124;6.226;2024-01-25T10:23:06;24.73;;;5.38;;
76023;SDS011;64719;52.124;6.226;2024-01-25T10:25:33;22.35;;;5.03;;
76023;SDS011;64719;52.124;6.226;2024-01-25T10:28:00;17.42;;;4.88;;
76023;SDS011;64719;52.124;6.226;2024-01-25T10:30:26;16.30;;;5.28;;
76023;SDS011;64719;52.124;6.226;2024-01-25T10:32:53;24.63;;;5.57;;
76023;SDS011;64719;52.124;6.226;2024-01-25T10:35:20;18.75;;;4.68;;
76023;SDS011;64719;52.124;6.226;2024-01-25T10:37:47;19.45;;;5.05;;
76023;SDS011;64719;52.124;6.226;2024-01-25T10:40:15;21.77;;;5.28;;
76023;SDS011;64719;52.124;6.226;2024-01-25T10:42:42;17.08;;;4.72;;
76023;SDS011;64719;52.124;6.226;2024-01-25T10:45:08;25.60;;;5.50;;
76023;SDS011;64719;52.124;6.226;2024-01-25T10:47:35;20.38;;;5.80;;
76023;SDS011;64719;52.124;6.226;2024-01-25T10:50:02;20.55;;;5.57;;
76023;SDS011;64719;52.124;6.226;2024-01-25T10:52:29;18.15;;;4.85;;
76023;SDS011;64719;52.124;6.226;2024-01-25T10:54:55;20.95;;;5.97;;
76023;SDS011;64719;52.124;6.226;2024-01-25T10:57:24;17.25;;;5.45;;
76023;SDS011;64719;52.124;6.226;2024-01-25T10:59:50;27.58;;;6.18;;
76023;SDS011;64719;52.124;6.226;2024-01-25T11:02:18;20.58;;;6.25;;
76023;SDS011;64719;52.124;6.226;2024-01-25T11:04:51;18.60;;;6.05;;
76023;SDS011;64719;52.124;6.226;2024-01-25T11:07:18;21.02;;;4.90;;
76023;SDS011;64719;52.124;6.226;2024-01-25T11:09:44;17.85;;;5.05;;
76023;SDS011;64719;52.124;6.226;2024-01-25T11:12:11;21.05;;;5.47;;
76023;SDS011;64719;52.124;6.226;2024-01-25T11:14:39;14.95;;;4.40;;
76023;SDS011;64719;52.124;6.226;2024-01-25T11:17:14;15.85;;;4.70;;
76023;SDS011;64719;52.124;6.226;2024-01-25T11:19:40;18.55;;;5.53;;
76023;SDS011;64719;52.124;6.226;2024-01-25T11:22:07;20.35;;;5.05;;
76023;SDS011;64719;52.124;6.226;2024-01-25T11:24:36;19.42;;;5.35;;
76023;SDS011;64719;52.124;6.226;2024-01-25T11:27:04;22.33;;;5.53;;
76023;SDS011;64719;52.124;6.226;2024-01-25T11:29:31;27.55;;;6.20;;
76023;SDS011;64719;52.124;6.226;2024-01-25T11:31:59;24.25;;;5.90;;
76023;SDS011;64719;52.124;6.226;2024-01-25T11:34:25;22.40;;;5.38;;
76023;SDS011;64719;52.124;6.226;2024-01-25T11:36:51;22.63;;;5.63;;
76023;SDS011;64719;52.124;6.226;2024-01-25T11:39:18;19.33;;;4.90;;
76023;SDS011;64719;52.124;6.226;2024-01-25T11:41:44;25.00;;;5.85;;
76023;SDS011;64719;52.124;6.226;2024-01-25T11:44:12;25.92;;;6.07;;
76023;SDS011;64719;52.124;6.226;2024-01-25T11:46:38;19.55;;;4.88;;
76023;SDS011;64719;52.124;6.226;2024-01-25T11:49:06;19.25;;;5.93;;
76023;SDS011;64719;52.124;6.226;2024-01-25T11:51:32;18.10;;;4.90;;
76023;SDS011;64719;52.124;6.226;2024-01-25T11:53:59;22.65;;;5.90;;
76023;SDS011;64719;52.124;6.226;2024-01-25T11:56:26;21.13;;;5.78;;
76023;SDS011;64719;52.124;6.226;2024-01-25T11:58:52;24.73;;;6.10;;
76023;SDS011;64719;52.124;6.226;2024-01-25T12:01:21;20.25;;;5.57;;
76023;SDS011;64719;52.124;6.226;2024-01-25T12:03:48;25.30;;;5.65;;
76023;SDS011;64719;52.124;6.226;2024-01-25T12:06:16;21.60;;;5.03;;
76023;SDS011;64719;52.124;6.226;2024-01-25T12:08:44;24.15;;;5.18;;
76023;SDS011;64719;52.124;6.226;2024-01-25T12:11:11;36.28;;;6.80;;
76023;SDS011;64719;52.124;6.226;2024-01-25T12:13:38;25.92;;;6.32;;
76023;SDS011;64719;52.124;6.226;2024-01-25T12:16:05;25.17;;;6.13;;
76023;SDS011;64719;52.124;6.226;2024-01-25T12:18:32;28.83;;;6.53;;
76023;SDS011;64719;52.124;6.226;2024-01-25T12:21:00;22.42;;;5.50;;
76023;SDS011;64719;52.124;6.226;2024-01-25T12:23:31;25.50;;;6.95;;
76023;SDS011;64719;52.124;6.226;2024-01-25T12:25:59;23.83;;;5.68;;
76023;SDS011;64719;52.124;6.226;2024-01-25T12:28:26;28.27;;;6.25;;
76023;SDS011;64719;52.124;6.226;2024-01-25T12:30:52;28.60;;;5.60;;
76023;SDS011;64719;52.124;6.226;2024-01-25T12:33:18;24.83;;;6.35;;
76023;SDS011;64719;52.124;6.226;2024-01-25T12:35:45;20.73;;;5.38;;
76023;SDS011;64719;52.124;6.226;2024-01-25T12:38:11;20.88;;;5.65;;
76023;SDS011;64719;52.124;6.226;2024-01-25T12:40:39;23.63;;;6.00;;
76023;SDS011;64719;52.124;6.226;2024-01-25T12:43:07;23.58;;;5.82;;
76023;SDS011;64719;52.124;6.226;2024-01-25T12:45:33;26.05;;;5.43;;
76023;SDS011;64719;52.124;6.226;2024-01-25T12:48:00;22.67;;;5.82;;
76023;SDS011;64719;52.124;6.226;2024-01-25T12:50:27;22.67;;;5.47;;
76023;SDS011;64719;52.124;6.226;2024-01-25T12:52:54;22.85;;;6.13;;
76023;SDS011;64719;52.124;6.226;2024-01-25T12:55:20;22.70;;;5.80;;
76023;SDS011;64719;52.124;6.226;2024-01-25T12:57:48;18.80;;;5.15;;
76023;SDS011;64719;52.124;6.226;2024-01-25T13:00:14;29.40;;;6.30;;
76023;SDS011;64719;52.124;6.226;2024-01-25T13:02:41;17.75;;;5.75;;
76023;SDS011;64719;52.124;6.226;2024-01-25T13:05:07;20.38;;;5.22;;
76023;SDS011;64719;52.124;6.226;2024-01-25T13:07:34;19.20;;;4.93;;
76023;SDS011;64719;52.124;6.226;2024-01-25T13:10:00;22.20;;;5.72;;
76023;SDS011;64719;52.124;6.226;2024-01-25T13:12:26;19.05;;;4.85;;
76023;SDS011;64719;52.124;6.226;2024-01-25T13:14:54;19.60;;;4.82;;
76023;SDS011;64719;52.124;6.226;2024-01-25T13:17:20;18.30;;;4.63;;
76023;SDS011;64719;52.124;6.226;2024-01-25T13:19:49;21.75;;;5.05;;
76023;SDS011;64719;52.124;6.226;2024-01-25T13:22:15;20.15;;;5.20;;
76023;SDS011;64719;52.124;6.226;2024-01-25T13:24:45;21.67;;;4.45;;
76023;SDS011;64719;52.124;6.226;2024-01-25T13:27:12;17.02;;;4.43;;
76023;SDS011;64719;52.124;6.226;2024-01-25T13:29:38;17.92;;;5.38;;
76023;SDS011;64719;52.124;6.226;2024-01-25T13:32:07;21.48;;;5.60;;
76023;SDS011;64719;52.124;6.226;2024-01-25T13:34:33;19.00;;;4.40;;
76023;SDS011;64719;52.124;6.226;2024-01-25T13:37:00;22.17;;;4.80;;
76023;SDS011;64719;52.124;6.226;2024-01-25T13:39:26;21.90;;;5.18;;
76023;SDS011;64719;52.124;6.226;2024-01-25T13:41:53;23.55;;;4.63;;
76023;SDS011;64719;52.124;6.226;2024-01-25T13:44:19;21.38;;;5.45;;
76023;SDS011;64719;52.124;6.226;2024-01-25T13:46:46;27.70;;;6.60;;
76023;SDS011;64719;52.124;6.226;2024-01-25T13:49:13;24.58;;;5.95;;
76023;SDS011;64719;52.124;6.226;2024-01-25T13:51:40;18.90;;;5.75;;
76023;SDS011;64719;52.124;6.226;2024-01-25T13:54:06;24.85;;;5.68;;
76023;SDS011;64719;52.124;6.226;2024-01-25T13:56:32;24.70;;;5.85;;
76023;SDS011;64719;52.124;6.226;2024-01-25T13:58:59;26.08;;;5.63;;
76023;SDS011;64719;52.124;6.226;2024-01-25T14:01:25;22.52;;;5.10;;
76023;SDS011;64719;52.124;6.226;2024-01-25T14:03:51;14.68;;;5.15;;
76023;SDS011;64719;52.124;6.226;2024-01-25T14:06:19;26.05;;;5.95;;
76023;SDS011;64719;52.124;6.226;2024-01-25T14:08:45;20.98;;;5.78;;
76023;SDS011;64719;52.124;6.226;2024-01-25T14:11:12;22.85;;;5.03;;
76023;SDS011;64719;52.124;6.226;2024-01-25T14:13:38;22.13;;;6.03;;
76023;SDS011;64719;52.124;6.226;2024-01-25T14:16:04;21.88;;;5.05;;
76023;SDS011;64719;52.124;6.226;2024-01-25T14:18:35;23.60;;;5.32;;
76023;SDS011;64719;52.124;6.226;2024-01-25T14:21:02;17.88;;;5.30;;
76023;SDS011;64719;52.124;6.226;2024-01-25T14:23:29;28.08;;;5.57;;
76023;SDS011;64719;52.124;6.226;2024-01-25T14:25:56;20.55;;;5.07;;
76023;SDS011;64719;52.124;6.226;2024-01-25T14:28:22;21.85;;;5.78;;
76023;SDS011;64719;52.124;6.226;2024-01-25T14:30:48;23.00;;;5.90;;